sensor_id;sensor_type;location;lat;lon;timestamp;P1;durP1;ratioP1;P2;durP2;ratioP2
14732;SDS011;7457;50.960;6.830;2022-12-07T00:02:04;28.55;;;20.38;;
14732;SDS011;7457;50.960;6.830;2022-12-07T00:04:30;30.33;;;20.67;;
14732;SDS011;7457;50.960;6.830;2022-12-07T00:06:55;27.90;;;20.60;;
14732;SDS011;7457;50.960;6.830;2022-12-07T00:09:21;29.23;;;20.13;;
14732;SDS011;7457;50.960;6.830;2022-12-07T00:11:50;28.23;;;20.27;;
14732;SDS011;7457;50.960;6.830;2022-12-07T00:14:16;27.05;;;20.23;;
14732;SDS011;7457;50.960;6.830;2022-12-07T00:16:43;31.00;;;19.70;;
14732;SDS011;7457;50.960;6.830;2022-12-07T00:19:09;27.33;;;20.60;;
14732;SDS011;7457;50.960;6.830;2022-12-07T00:21:36;23.30;;;18.95;;
14732;SDS011;7457;50.960;6.830;2022-12-07T00:24:03;28.50;;;20.27;;
14732;SDS011;7457;50.960;6.830;2022-12-07T00:26:36;28.08;;;20.45;;
14732;SDS011;7457;50.960;6.830;2022-12-07T00:29:04;30.25;;;20.95;;
14732;SDS011;7457;50.960;6.830;2022-12-07T00:31:33;30.63;;;21.10;;
14732;SDS011;7457;50.960;6.830;2022-12-07T00:34:04;25.48;;;20.35;;
14732;SDS011;7457;50.960;6.830;2022-12-07T00:36:30;33.65;;;22.17;;
14732;SDS011;7457;50.960;6.830;2022-12-07T00:38:57;28.27;;;20.15;;
14732;SDS011;7457;50.960;6.830;2022-12-07T00:41:24;29.63;;;20.95;;
14732;SDS011;7457;50.960;6.830;2022-12-07T00:43:50;31.23;;;20.85;;
14732;SDS011;7457;50.960;6.830;2022-12-07T00:46:17;31.63;;;22.05;;
14732;SDS011;7457;50.960;6.830;2022-12-07T00:48:44;31.48;;;21.25;;
14732;SDS011;7457;50.960;6.830;2022-12-07T00:51:13;30.65;;;21.60;;
14732;SDS011;7457;50.960;6.830;2022-12-07T00:53:40;33.42;;;23.00;;
14732;SDS011;7457;50.960;6.830;2022-12-07T00:56:06;32.97;;;21.33;;
14732;SDS011;7457;50.960;6.830;2022-12-07T00:58:36;32.50;;;22.35;;
14732;SDS011;7457;50.960;6.830;2022-12-07T01:01:02;32.53;;;21.63;;
14732;SDS011;7457;50.960;6.830;2022-12-07T01:03:29;33.60;;;21.67;;
14732;SDS011;7457;50.960;6.830;2022-12-07T01:05:56;31.88;;;22.08;;
14732;SDS011;7457;50.960;6.830;2022-12-07T01:08:22;27.90;;;20.33;;
14732;SDS011;7457;50.960;6.830;2022-12-07T01:10:48;34.78;;;23.55;;
14732;SDS011;7457;50.960;6.830;2022-12-07T01:13:21;26.33;;;20.45;;
14732;SDS011;7457;50.960;6.830;2022-12-07T01:15:47;31.50;;;22.42;;
14732;SDS011;7457;50.960;6.830;2022-12-07T01:18:13;31.80;;;22.38;;
14732;SDS011;7457;50.960;6.830;2022-12-07T01:20:38;31.10;;;21.77;;
14732;SDS011;7457;50.960;6.830;2022-12-07T01:23:04;30.73;;;22.38;;
14732;SDS011;7457;50.960;6.830;2022-12-07T01:25:30;33.72;;;22.33;;
14732;SDS011;7457;50.960;6.830;2022-12-07T01:27:56;36.33;;;23.15;;
14732;SDS011;7457;50.960;6.830;2022-12-07T01:30:21;32.55;;;23.02;;
14732;SDS011;7457;50.960;6.830;2022-12-07T01:32:47;30.95;;;22.02;;
14732;SDS011;7457;50.960;6.830;2022-12-07T01:35:13;32.75;;;22.20;;
14732;SDS011;7457;50.960;6.830;2022-12-07T01:37:39;35.35;;;23.55;;
14732;SDS011;7457;50.960;6.830;2022-12-07T01:40:05;32.53;;;22.38;;
14732;SDS011;7457;50.960;6.830;2022-12-07T01:42:33;27.73;;;21.55;;
14732;SDS011;7457;50.960;6.830;2022-12-07T01:47:47;32.97;;;22.95;;
14732;SDS011;7457;50.960;6.830;2022-12-07T01:50:21;32.53;;;22.52;;
14732;SDS011;7457;50.960;6.830;2022-12-07T01:52:51;32.85;;;22.10;;
14732;SDS011;7457;50.960;6.830;2022-12-07T01:55:19;30.60;;;21.30;;
14732;SDS011;7457;50.960;6.830;2022-12-07T01:57:46;30.52;;;21.40;;
14732;SDS011;7457;50.960;6.830;2022-12-07T02:00:15;31.98;;;22.10;;
14732;SDS011;7457;50.960;6.830;2022-12-07T02:02:55;29.67;;;21.83;;
14732;SDS011;7457;50.960;6.830;2022-12-07T02:05:26;31.20;;;22.55;;
14732;SDS011;7457;50.960;6.830;2022-12-07T02:07:53;31.50;;;21.73;;
14732;SDS011;7457;50.960;6.830;2022-12-07T02:10:22;29.48;;;22.83;;
14732;SDS011;7457;50.960;6.830;2022-12-07T02:13:02;29.45;;;21.85;;
14732;SDS011;7457;50.960;6.830;2022-12-07T02:18:14;31.55;;;21.63;;
14732;SDS011;7457;50.960;6.830;2022-12-07T02:21:25;31.45;;;21.58;;
14732;SDS011;7457;50.960;6.830;2022-12-07T02:29:28;32.50;;;24.25;;
14732;SDS011;7457;50.960;6.830;2022-12-07T02:40:41;34.38;;;23.63;;
14732;SDS011;7457;50.960;6.830;2022-12-07T02:43:19;29.70;;;22.33;;
14732;SDS011;7457;50.960;6.830;2022-12-07T02:45:56;34.13;;;23.70;;
14732;SDS011;7457;50.960;6.830;2022-12-07T02:48:26;34.75;;;24.60;;
14732;SDS011;7457;50.960;6.830;2022-12-07T02:50:53;33.15;;;24.23;;
14732;SDS011;7457;50.960;6.830;2022-12-07T02:56:07;35.33;;;23.85;;
14732;SDS011;7457;50.960;6.830;2022-12-07T02:58:59;37.17;;;24.08;;
14732;SDS011;7457;50.960;6.830;2022-12-07T03:03:58;33.40;;;24.27;;
14732;SDS011;7457;50.960;6.830;2022-12-07T03:06:47;35.42;;;23.70;;
14732;SDS011;7457;50.960;6.830;2022-12-07T03:09:31;32.55;;;22.85;;
14732;SDS011;7457;50.960;6.830;2022-12-07T03:14:36;33.80;;;24.05;;
14732;SDS011;7457;50.960;6.830;2022-12-07T03:17:14;36.70;;;23.67;;
14732;SDS011;7457;50.960;6.830;2022-12-07T03:19:44;37.67;;;27.02;;
14732;SDS011;7457;50.960;6.830;2022-12-07T03:22:11;35.97;;;25.42;;
14732;SDS011;7457;50.960;6.830;2022-12-07T03:25:21;35.17;;;24.90;;
14732;SDS011;7457;50.960;6.830;2022-12-07T03:30:51;38.75;;;25.30;;
14732;SDS011;7457;50.960;6.830;2022-12-07T03:36:04;40.55;;;25.77;;
14732;SDS011;7457;50.960;6.830;2022-12-07T03:38:44;39.10;;;25.38;;
14732;SDS011;7457;50.960;6.830;2022-12-07T03:41:16;37.03;;;24.45;;
14732;SDS011;7457;50.960;6.830;2022-12-07T03:43:46;35.65;;;22.35;;
14732;SDS011;7457;50.960;6.830;2022-12-07T03:49:14;32.85;;;24.05;;
14732;SDS011;7457;50.960;6.830;2022-12-07T03:52:08;34.92;;;24.05;;
14732;SDS011;7457;50.960;6.830;2022-12-07T03:57:25;32.70;;;22.15;;
14732;SDS011;7457;50.960;6.830;2022-12-07T03:59:53;37.55;;;24.73;;
14732;SDS011;7457;50.960;6.830;2022-12-07T04:02:20;33.75;;;23.55;;
14732;SDS011;7457;50.960;6.830;2022-12-07T04:04:47;38.53;;;23.08;;
14732;SDS011;7457;50.960;6.830;2022-12-07T04:07:12;35.05;;;24.10;;
14732;SDS011;7457;50.960;6.830;2022-12-07T04:09:39;34.28;;;23.00;;
14732;SDS011;7457;50.960;6.830;2022-12-07T04:12:04;35.10;;;24.30;;
14732;SDS011;7457;50.960;6.830;2022-12-07T04:14:30;35.95;;;23.13;;
14732;SDS011;7457;50.960;6.830;2022-12-07T04:16:56;34.72;;;24.13;;
14732;SDS011;7457;50.960;6.830;2022-12-07T04:19:23;35.13;;;22.70;;
14732;SDS011;7457;50.960;6.830;2022-12-07T04:21:51;32.20;;;22.05;;
14732;SDS011;7457;50.960;6.830;2022-12-07T04:24:17;32.38;;;21.88;;
14732;SDS011;7457;50.960;6.830;2022-12-07T04:26:43;30.45;;;22.40;;
14732;SDS011;7457;50.960;6.830;2022-12-07T04:29:10;27.63;;;21.27;;
14732;SDS011;7457;50.960;6.830;2022-12-07T04:31:37;32.53;;;21.73;;
14732;SDS011;7457;50.960;6.830;2022-12-07T04:34:03;30.13;;;21.77;;
14732;SDS011;7457;50.960;6.830;2022-12-07T04:36:29;32.47;;;22.67;;
14732;SDS011;7457;50.960;6.830;2022-12-07T04:38:55;34.97;;;22.30;;
14732;SDS011;7457;50.960;6.830;2022-12-07T04:41:21;35.92;;;23.55;;
14732;SDS011;7457;50.960;6.830;2022-12-07T04:44:01;33.90;;;22.67;;
14732;SDS011;7457;50.960;6.830;2022-12-07T04:46:29;37.80;;;25.08;;
14732;SDS011;7457;50.960;6.830;2022-12-07T04:48:56;34.90;;;23.98;;
14732;SDS011;7457;50.960;6.830;2022-12-07T04:51:23;34.38;;;24.25;;
14732;SDS011;7457;50.960;6.830;2022-12-07T04:53:50;36.17;;;24.65;;
14732;SDS011;7457;50.960;6.830;2022-12-07T04:56:16;32.33;;;23.90;;
14732;SDS011;7457;50.960;6.830;2022-12-07T04:58:43;34.70;;;23.77;;
14732;SDS011;7457;50.960;6.830;2022-12-07T05:01:11;33.80;;;23.27;;
14732;SDS011;7457;50.960;6.830;2022-12-07T05:03:37;35.15;;;23.52;;
14732;SDS011;7457;50.960;6.830;2022-12-07T05:06:03;31.83;;;22.90;;
14732;SDS011;7457;50.960;6.830;2022-12-07T05:08:29;32.97;;;24.00;;
14732;SDS011;7457;50.960;6.830;2022-12-07T05:10:55;35.55;;;24.17;;
14732;SDS011;7457;50.960;6.830;2022-12-07T05:13:20;33.88;;;22.92;;
14732;SDS011;7457;50.960;6.830;2022-12-07T05:15:47;32.33;;;22.65;;
14732;SDS011;7457;50.960;6.830;2022-12-07T05:18:13;29.80;;;22.42;;
14732;SDS011;7457;50.960;6.830;2022-12-07T05:20:39;32.90;;;22.60;;
14732;SDS011;7457;50.960;6.830;2022-12-07T05:23:05;33.83;;;22.48;;
14732;SDS011;7457;50.960;6.830;2022-12-07T05:25:31;32.03;;;22.52;;
14732;SDS011;7457;50.960;6.830;2022-12-07T05:27:57;35.92;;;23.50;;
14732;SDS011;7457;50.960;6.830;2022-12-07T05:30:23;34.72;;;23.50;;
14732;SDS011;7457;50.960;6.830;2022-12-07T05:32:50;35.35;;;23.98;;
14732;SDS011;7457;50.960;6.830;2022-12-07T05:35:16;35.47;;;24.17;;
14732;SDS011;7457;50.960;6.830;2022-12-07T05:37:42;36.28;;;23.73;;
14732;SDS011;7457;50.960;6.830;2022-12-07T05:40:09;31.73;;;23.30;;
14732;SDS011;7457;50.960;6.830;2022-12-07T05:42:35;32.65;;;23.35;;
14732;SDS011;7457;50.960;6.830;2022-12-07T05:45:00;36.88;;;23.05;;
14732;SDS011;7457;50.960;6.830;2022-12-07T05:47:26;33.88;;;23.55;;
14732;SDS011;7457;50.960;6.830;2022-12-07T05:49:52;36.20;;;23.67;;
14732;SDS011;7457;50.960;6.830;2022-12-07T05:52:17;33.13;;;23.33;;
14732;SDS011;7457;50.960;6.830;2022-12-07T05:54:43;34.58;;;23.00;;
14732;SDS011;7457;50.960;6.830;2022-12-07T05:57:08;34.53;;;23.35;;
14732;SDS011;7457;50.960;6.830;2022-12-07T05:59:34;34.30;;;22.58;;
14732;SDS011;7457;50.960;6.830;2022-12-07T06:02:01;33.47;;;22.35;;
14732;SDS011;7457;50.960;6.830;2022-12-07T06:04:30;32.72;;;21.58;;
14732;SDS011;7457;50.960;6.830;2022-12-07T06:06:57;32.70;;;22.05;;
14732;SDS011;7457;50.960;6.830;2022-12-07T06:09:24;32.20;;;22.25;;
14732;SDS011;7457;50.960;6.830;2022-12-07T06:11:50;30.30;;;21.50;;
14732;SDS011;7457;50.960;6.830;2022-12-07T06:14:35;31.85;;;21.50;;
14732;SDS011;7457;50.960;6.830;2022-12-07T06:17:00;31.45;;;21.05;;
14732;SDS011;7457;50.960;6.830;2022-12-07T06:19:26;31.13;;;21.48;;
14732;SDS011;7457;50.960;6.830;2022-12-07T06:21:52;32.78;;;21.23;;
14732;SDS011;7457;50.960;6.830;2022-12-07T06:24:18;29.90;;;22.17;;
14732;SDS011;7457;50.960;6.830;2022-12-07T06:26:44;34.30;;;22.60;;
14732;SDS011;7457;50.960;6.830;2022-12-07T06:29:10;31.27;;;21.50;;
14732;SDS011;7457;50.960;6.830;2022-12-07T06:31:37;32.55;;;22.85;;
14732;SDS011;7457;50.960;6.830;2022-12-07T06:34:04;37.42;;;24.65;;
14732;SDS011;7457;50.960;6.830;2022-12-07T06:36:31;34.65;;;25.40;;
14732;SDS011;7457;50.960;6.830;2022-12-07T06:38:57;36.65;;;25.20;;
14732;SDS011;7457;50.960;6.830;2022-12-07T06:41:23;35.40;;;24.88;;
14732;SDS011;7457;50.960;6.830;2022-12-07T06:43:49;37.78;;;25.67;;
14732;SDS011;7457;50.960;6.830;2022-12-07T06:46:15;34.10;;;23.92;;
14732;SDS011;7457;50.960;6.830;2022-12-07T06:48:42;37.67;;;26.50;;
14732;SDS011;7457;50.960;6.830;2022-12-07T06:51:08;37.95;;;24.95;;
14732;SDS011;7457;50.960;6.830;2022-12-07T06:53:34;33.38;;;23.60;;
14732;SDS011;7457;50.960;6.830;2022-12-07T06:56:00;36.13;;;24.80;;
14732;SDS011;7457;50.960;6.830;2022-12-07T06:58:26;37.45;;;25.30;;
14732;SDS011;7457;50.960;6.830;2022-12-07T07:00:52;34.58;;;25.38;;
14732;SDS011;7457;50.960;6.830;2022-12-07T07:03:18;39.00;;;25.10;;
14732;SDS011;7457;50.960;6.830;2022-12-07T07:05:44;38.42;;;26.80;;
14732;SDS011;7457;50.960;6.830;2022-12-07T07:08:10;38.38;;;24.85;;
14732;SDS011;7457;50.960;6.830;2022-12-07T07:10:36;37.05;;;26.60;;
14732;SDS011;7457;50.960;6.830;2022-12-07T07:13:03;42.30;;;28.38;;
14732;SDS011;7457;50.960;6.830;2022-12-07T07:15:29;38.70;;;27.40;;
14732;SDS011;7457;50.960;6.830;2022-12-07T07:17:55;44.45;;;27.33;;
14732;SDS011;7457;50.960;6.830;2022-12-07T07:20:21;40.00;;;25.77;;
14732;SDS011;7457;50.960;6.830;2022-12-07T07:22:47;37.90;;;25.92;;
14732;SDS011;7457;50.960;6.830;2022-12-07T07:25:13;43.20;;;27.05;;
14732;SDS011;7457;50.960;6.830;2022-12-07T07:27:39;36.83;;;25.67;;
14732;SDS011;7457;50.960;6.830;2022-12-07T07:30:04;39.65;;;26.38;;
14732;SDS011;7457;50.960;6.830;2022-12-07T07:32:30;42.03;;;26.75;;
14732;SDS011;7457;50.960;6.830;2022-12-07T07:34:56;38.00;;;27.75;;
14732;SDS011;7457;50.960;6.830;2022-12-07T07:37:22;37.38;;;26.40;;
14732;SDS011;7457;50.960;6.830;2022-12-07T07:39:47;35.88;;;26.70;;
14732;SDS011;7457;50.960;6.830;2022-12-07T07:42:13;41.00;;;27.65;;
14732;SDS011;7457;50.960;6.830;2022-12-07T07:44:39;35.97;;;26.65;;
14732;SDS011;7457;50.960;6.830;2022-12-07T07:47:04;35.53;;;26.02;;
14732;SDS011;7457;50.960;6.830;2022-12-07T07:49:30;35.35;;;25.35;;
14732;SDS011;7457;50.960;6.830;2022-12-07T07:51:56;39.35;;;25.60;;
14732;SDS011;7457;50.960;6.830;2022-12-07T07:54:21;38.17;;;26.55;;
14732;SDS011;7457;50.960;6.830;2022-12-07T07:56:47;33.60;;;23.98;;
14732;SDS011;7457;50.960;6.830;2022-12-07T07:59:12;38.28;;;25.80;;
14732;SDS011;7457;50.960;6.830;2022-12-07T08:01:39;35.55;;;24.48;;
14732;SDS011;7457;50.960;6.830;2022-12-07T08:04:05;36.83;;;23.25;;
14732;SDS011;7457;50.960;6.830;2022-12-07T08:06:30;32.13;;;22.33;;
14732;SDS011;7457;50.960;6.830;2022-12-07T08:08:56;27.27;;;21.60;;
14732;SDS011;7457;50.960;6.830;2022-12-07T08:11:23;31.33;;;22.52;;
14732;SDS011;7457;50.960;6.830;2022-12-07T08:13:48;32.97;;;23.23;;
14732;SDS011;7457;50.960;6.830;2022-12-07T08:16:14;33.00;;;22.48;;
14732;SDS011;7457;50.960;6.830;2022-12-07T08:18:40;30.27;;;21.63;;
14732;SDS011;7457;50.960;6.830;2022-12-07T08:21:07;33.40;;;22.83;;
14732;SDS011;7457;50.960;6.830;2022-12-07T08:23:35;31.92;;;22.80;;
14732;SDS011;7457;50.960;6.830;2022-12-07T08:26:01;31.85;;;20.52;;
14732;SDS011;7457;50.960;6.830;2022-12-07T08:28:28;30.27;;;21.30;;
14732;SDS011;7457;50.960;6.830;2022-12-07T08:31:00;27.98;;;20.15;;
14732;SDS011;7457;50.960;6.830;2022-12-07T08:33:27;29.27;;;20.80;;
14732;SDS011;7457;50.960;6.830;2022-12-07T08:35:53;27.00;;;20.27;;
14732;SDS011;7457;50.960;6.830;2022-12-07T08:38:19;25.30;;;19.70;;
14732;SDS011;7457;50.960;6.830;2022-12-07T08:40:45;32.38;;;20.95;;
14732;SDS011;7457;50.960;6.830;2022-12-07T08:43:18;29.75;;;19.65;;
14732;SDS011;7457;50.960;6.830;2022-12-07T08:45:43;27.73;;;18.02;;
14732;SDS011;7457;50.960;6.830;2022-12-07T08:48:09;27.20;;;18.88;;
14732;SDS011;7457;50.960;6.830;2022-12-07T08:50:38;25.88;;;19.15;;
14732;SDS011;7457;50.960;6.830;2022-12-07T08:53:04;27.10;;;18.17;;
14732;SDS011;7457;50.960;6.830;2022-12-07T08:55:31;26.45;;;17.52;;
14732;SDS011;7457;50.960;6.830;2022-12-07T08:57:58;25.45;;;18.05;;
14732;SDS011;7457;50.960;6.830;2022-12-07T09:00:25;24.90;;;17.20;;
14732;SDS011;7457;50.960;6.830;2022-12-07T09:02:51;23.08;;;16.65;;
14732;SDS011;7457;50.960;6.830;2022-12-07T09:05:18;22.08;;;15.75;;
14732;SDS011;7457;50.960;6.830;2022-12-07T09:07:44;20.98;;;15.23;;
14732;SDS011;7457;50.960;6.830;2022-12-07T09:10:14;21.63;;;15.55;;
14732;SDS011;7457;50.960;6.830;2022-12-07T09:12:40;20.70;;;14.40;;
14732;SDS011;7457;50.960;6.830;2022-12-07T09:15:05;17.42;;;12.75;;
14732;SDS011;7457;50.960;6.830;2022-12-07T09:17:32;22.23;;;13.55;;
14732;SDS011;7457;50.960;6.830;2022-12-07T09:19:59;20.65;;;13.55;;
14732;SDS011;7457;50.960;6.830;2022-12-07T09:22:28;22.45;;;13.55;;
14732;SDS011;7457;50.960;6.830;2022-12-07T09:24:57;17.55;;;12.70;;
14732;SDS011;7457;50.960;6.830;2022-12-07T09:27:23;22.35;;;13.75;;
14732;SDS011;7457;50.960;6.830;2022-12-07T09:29:49;20.83;;;12.82;;
14732;SDS011;7457;50.960;6.830;2022-12-07T09:32:15;19.10;;;13.10;;
14732;SDS011;7457;50.960;6.830;2022-12-07T09:34:41;17.63;;;12.30;;
14732;SDS011;7457;50.960;6.830;2022-12-07T09:37:06;16.70;;;12.32;;
14732;SDS011;7457;50.960;6.830;2022-12-07T09:39:33;16.88;;;12.15;;
14732;SDS011;7457;50.960;6.830;2022-12-07T09:41:58;20.40;;;12.88;;
14732;SDS011;7457;50.960;6.830;2022-12-07T09:44:28;16.85;;;12.25;;
14732;SDS011;7457;50.960;6.830;2022-12-07T09:46:53;17.02;;;12.27;;
14732;SDS011;7457;50.960;6.830;2022-12-07T09:49:23;17.90;;;11.43;;
14732;SDS011;7457;50.960;6.830;2022-12-07T09:54:33;17.35;;;11.48;;
14732;SDS011;7457;50.960;6.830;2022-12-07T09:57:06;14.63;;;10.85;;
14732;SDS011;7457;50.960;6.830;2022-12-07T09:59:33;16.73;;;10.90;;
14732;SDS011;7457;50.960;6.830;2022-12-07T10:02:04;15.52;;;10.52;;
14732;SDS011;7457;50.960;6.830;2022-12-07T10:04:48;17.27;;;11.32;;
14732;SDS011;7457;50.960;6.830;2022-12-07T10:07:14;16.58;;;11.85;;
14732;SDS011;7457;50.960;6.830;2022-12-07T10:09:40;15.20;;;11.63;;
14732;SDS011;7457;50.960;6.830;2022-12-07T10:12:07;15.02;;;10.63;;
14732;SDS011;7457;50.960;6.830;2022-12-07T10:14:35;14.82;;;10.55;;
14732;SDS011;7457;50.960;6.830;2022-12-07T10:20:13;16.48;;;11.73;;
14732;SDS011;7457;50.960;6.830;2022-12-07T10:22:38;15.90;;;11.48;;
14732;SDS011;7457;50.960;6.830;2022-12-07T10:25:20;17.20;;;11.25;;
14732;SDS011;7457;50.960;6.830;2022-12-07T10:28:00;17.00;;;12.00;;
14732;SDS011;7457;50.960;6.830;2022-12-07T10:30:50;19.58;;;12.43;;
14732;SDS011;7457;50.960;6.830;2022-12-07T10:33:29;18.23;;;11.60;;
14732;SDS011;7457;50.960;6.830;2022-12-07T10:38:53;18.73;;;11.35;;
14732;SDS011;7457;50.960;6.830;2022-12-07T10:41:25;19.17;;;10.82;;
14732;SDS011;7457;50.960;6.830;2022-12-07T10:43:52;18.60;;;10.70;;
14732;SDS011;7457;50.960;6.830;2022-12-07T10:52:03;16.77;;;9.65;;
14732;SDS011;7457;50.960;6.830;2022-12-07T11:00:24;11.98;;;9.18;;
14732;SDS011;7457;50.960;6.830;2022-12-07T11:05:38;16.15;;;9.57;;
14732;SDS011;7457;50.960;6.830;2022-12-07T11:11:23;14.27;;;8.38;;
14732;SDS011;7457;50.960;6.830;2022-12-07T11:14:25;12.73;;;7.82;;
14732;SDS011;7457;50.960;6.830;2022-12-07T11:17:17;14.07;;;8.15;;
14732;SDS011;7457;50.960;6.830;2022-12-07T11:25:44;13.75;;;8.50;;
14732;SDS011;7457;50.960;6.830;2022-12-07T11:28:30;12.23;;;7.95;;
14732;SDS011;7457;50.960;6.830;2022-12-07T11:34:08;12.77;;;8.13;;
14732;SDS011;7457;50.960;6.830;2022-12-07T11:36:44;15.45;;;8.98;;
14732;SDS011;7457;50.960;6.830;2022-12-07T11:39:25;11.65;;;8.63;;
14732;SDS011;7457;50.960;6.830;2022-12-07T11:41:55;12.43;;;8.52;;
14732;SDS011;7457;50.960;6.830;2022-12-07T11:44:36;14.95;;;9.35;;
14732;SDS011;7457;50.960;6.830;2022-12-07T11:55:41;15.15;;;10.65;;
14732;SDS011;7457;50.960;6.830;2022-12-07T12:03:33;17.65;;;11.98;;
14732;SDS011;7457;50.960;6.830;2022-12-07T12:06:03;17.38;;;10.93;;
14732;SDS011;7457;50.960;6.830;2022-12-07T12:11:20;18.38;;;11.73;;
14732;SDS011;7457;50.960;6.830;2022-12-07T12:19:16;16.20;;;11.07;;
14732;SDS011;7457;50.960;6.830;2022-12-07T12:21:46;14.50;;;10.10;;
14732;SDS011;7457;50.960;6.830;2022-12-07T12:24:15;19.02;;;10.60;;
14732;SDS011;7457;50.960;6.830;2022-12-07T12:26:50;14.20;;;9.63;;
14732;SDS011;7457;50.960;6.830;2022-12-07T12:29:23;14.65;;;10.00;;
14732;SDS011;7457;50.960;6.830;2022-12-07T12:37:48;16.58;;;10.38;;
14732;SDS011;7457;50.960;6.830;2022-12-07T12:42:43;16.92;;;9.93;;
14732;SDS011;7457;50.960;6.830;2022-12-07T12:50:31;14.60;;;9.55;;
14732;SDS011;7457;50.960;6.830;2022-12-07T13:00:43;14.93;;;9.77;;
14732;SDS011;7457;50.960;6.830;2022-12-07T13:03:31;12.50;;;9.13;;
14732;SDS011;7457;50.960;6.830;2022-12-07T13:08:56;15.77;;;9.10;;
14732;SDS011;7457;50.960;6.830;2022-12-07T13:11:34;17.80;;;9.88;;
14732;SDS011;7457;50.960;6.830;2022-12-07T13:17:06;13.73;;;8.52;;
14732;SDS011;7457;50.960;6.830;2022-12-07T13:25:09;17.80;;;10.05;;
14732;SDS011;7457;50.960;6.830;2022-12-07T13:27:47;18.55;;;10.18;;
14732;SDS011;7457;50.960;6.830;2022-12-07T13:30:26;14.95;;;9.77;;
14732;SDS011;7457;50.960;6.830;2022-12-07T13:32:54;13.80;;;10.10;;
14732;SDS011;7457;50.960;6.830;2022-12-07T13:35:31;18.05;;;9.90;;
14732;SDS011;7457;50.960;6.830;2022-12-07T13:38:04;12.85;;;9.32;;
14732;SDS011;7457;50.960;6.830;2022-12-07T13:40:40;11.20;;;8.73;;
14732;SDS011;7457;50.960;6.830;2022-12-07T13:43:12;14.32;;;9.00;;
14732;SDS011;7457;50.960;6.830;2022-12-07T13:45:41;14.27;;;9.20;;
14732;SDS011;7457;50.960;6.830;2022-12-07T13:50:55;10.05;;;8.52;;
14732;SDS011;7457;50.960;6.830;2022-12-07T13:53:23;12.20;;;9.98;;
14732;SDS011;7457;50.960;6.830;2022-12-07T13:55:49;14.52;;;9.30;;
14732;SDS011;7457;50.960;6.830;2022-12-07T13:58:15;18.30;;;9.43;;
14732;SDS011;7457;50.960;6.830;2022-12-07T14:00:42;14.55;;;9.48;;
14732;SDS011;7457;50.960;6.830;2022-12-07T14:05:40;14.77;;;9.63;;
14732;SDS011;7457;50.960;6.830;2022-12-07T14:18:43;14.07;;;9.77;;
14732;SDS011;7457;50.960;6.830;2022-12-07T14:23:34;13.65;;;9.80;;
14732;SDS011;7457;50.960;6.830;2022-12-07T14:26:07;12.27;;;9.85;;
14732;SDS011;7457;50.960;6.830;2022-12-07T14:28:38;14.23;;;11.13;;
14732;SDS011;7457;50.960;6.830;2022-12-07T14:31:08;14.55;;;9.85;;
14732;SDS011;7457;50.960;6.830;2022-12-07T14:33:37;19.92;;;10.57;;
14732;SDS011;7457;50.960;6.830;2022-12-07T14:36:04;18.30;;;10.68;;
14732;SDS011;7457;50.960;6.830;2022-12-07T14:38:29;17.20;;;11.50;;
14732;SDS011;7457;50.960;6.830;2022-12-07T14:40:55;13.98;;;10.18;;
14732;SDS011;7457;50.960;6.830;2022-12-07T14:43:44;17.85;;;10.85;;
14732;SDS011;7457;50.960;6.830;2022-12-07T14:46:10;14.50;;;10.27;;
14732;SDS011;7457;50.960;6.830;2022-12-07T14:48:35;16.77;;;10.93;;
14732;SDS011;7457;50.960;6.830;2022-12-07T14:51:01;16.58;;;10.50;;
14732;SDS011;7457;50.960;6.830;2022-12-07T14:53:33;14.27;;;10.98;;
14732;SDS011;7457;50.960;6.830;2022-12-07T14:56:04;15.90;;;12.15;;
14732;SDS011;7457;50.960;6.830;2022-12-07T14:58:30;11.48;;;9.80;;
14732;SDS011;7457;50.960;6.830;2022-12-07T15:00:57;14.15;;;10.35;;
14732;SDS011;7457;50.960;6.830;2022-12-07T15:03:23;13.82;;;10.35;;
14732;SDS011;7457;50.960;6.830;2022-12-07T15:05:48;13.85;;;10.18;;
14732;SDS011;7457;50.960;6.830;2022-12-07T15:08:14;14.98;;;10.38;;
14732;SDS011;7457;50.960;6.830;2022-12-07T15:10:40;16.40;;;11.52;;
14732;SDS011;7457;50.960;6.830;2022-12-07T15:13:06;21.35;;;12.80;;
14732;SDS011;7457;50.960;6.830;2022-12-07T15:15:51;18.73;;;12.55;;
14732;SDS011;7457;50.960;6.830;2022-12-07T15:18:18;18.38;;;11.38;;
14732;SDS011;7457;50.960;6.830;2022-12-07T15:20:46;18.25;;;9.63;;
14732;SDS011;7457;50.960;6.830;2022-12-07T15:23:12;14.07;;;8.32;;
14732;SDS011;7457;50.960;6.830;2022-12-07T15:25:41;12.48;;;8.73;;
14732;SDS011;7457;50.960;6.830;2022-12-07T15:28:08;14.70;;;9.32;;
14732;SDS011;7457;50.960;6.830;2022-12-07T15:30:34;14.35;;;9.07;;
14732;SDS011;7457;50.960;6.830;2022-12-07T15:33:01;14.10;;;9.95;;
14732;SDS011;7457;50.960;6.830;2022-12-07T15:35:27;13.27;;;10.85;;
14732;SDS011;7457;50.960;6.830;2022-12-07T15:37:52;16.13;;;10.93;;
14732;SDS011;7457;50.960;6.830;2022-12-07T15:40:18;13.73;;;11.60;;
14732;SDS011;7457;50.960;6.830;2022-12-07T15:42:44;16.60;;;11.18;;
14732;SDS011;7457;50.960;6.830;2022-12-07T15:45:09;15.48;;;10.57;;
14732;SDS011;7457;50.960;6.830;2022-12-07T15:47:37;9.90;;;8.70;;
14732;SDS011;7457;50.960;6.830;2022-12-07T15:50:05;10.80;;;7.72;;
14732;SDS011;7457;50.960;6.830;2022-12-07T15:52:32;8.15;;;6.90;;
14732;SDS011;7457;50.960;6.830;2022-12-07T15:54:58;9.50;;;7.38;;
14732;SDS011;7457;50.960;6.830;2022-12-07T15:57:25;9.55;;;7.47;;
14732;SDS011;7457;50.960;6.830;2022-12-07T15:59:51;10.25;;;7.80;;
14732;SDS011;7457;50.960;6.830;2022-12-07T16:02:17;10.15;;;7.40;;
14732;SDS011;7457;50.960;6.830;2022-12-07T16:04:42;8.25;;;6.40;;
14732;SDS011;7457;50.960;6.830;2022-12-07T16:07:08;11.57;;;6.82;;
14732;SDS011;7457;50.960;6.830;2022-12-07T16:09:36;11.40;;;7.82;;
14732;SDS011;7457;50.960;6.830;2022-12-07T16:12:02;8.00;;;6.55;;
14732;SDS011;7457;50.960;6.830;2022-12-07T16:14:28;9.13;;;7.13;;
14732;SDS011;7457;50.960;6.830;2022-12-07T16:16:53;10.65;;;7.10;;
14732;SDS011;7457;50.960;6.830;2022-12-07T16:19:19;14.75;;;7.47;;
14732;SDS011;7457;50.960;6.830;2022-12-07T16:21:45;8.20;;;6.95;;
14732;SDS011;7457;50.960;6.830;2022-12-07T16:24:10;9.07;;;6.80;;
14732;SDS011;7457;50.960;6.830;2022-12-07T16:26:38;12.00;;;7.22;;
14732;SDS011;7457;50.960;6.830;2022-12-07T16:29:03;7.82;;;6.30;;
14732;SDS011;7457;50.960;6.830;2022-12-07T16:31:29;9.15;;;6.30;;
14732;SDS011;7457;50.960;6.830;2022-12-07T16:33:56;6.85;;;6.25;;
14732;SDS011;7457;50.960;6.830;2022-12-07T16:36:22;6.72;;;5.50;;
14732;SDS011;7457;50.960;6.830;2022-12-07T16:38:50;6.47;;;5.57;;
14732;SDS011;7457;50.960;6.830;2022-12-07T16:41:16;7.78;;;6.00;;
14732;SDS011;7457;50.960;6.830;2022-12-07T16:43:41;8.88;;;7.38;;
14732;SDS011;7457;50.960;6.830;2022-12-07T16:46:07;8.10;;;7.05;;
14732;SDS011;7457;50.960;6.830;2022-12-07T16:48:39;10.13;;;6.78;;
14732;SDS011;7457;50.960;6.830;2022-12-07T16:51:06;8.18;;;7.22;;
14732;SDS011;7457;50.960;6.830;2022-12-07T16:53:36;8.85;;;7.35;;
14732;SDS011;7457;50.960;6.830;2022-12-07T16:56:03;10.65;;;7.85;;
14732;SDS011;7457;50.960;6.830;2022-12-07T16:58:30;12.73;;;8.20;;
14732;SDS011;7457;50.960;6.830;2022-12-07T17:00:56;9.38;;;7.57;;
14732;SDS011;7457;50.960;6.830;2022-12-07T17:03:21;11.73;;;8.32;;
14732;SDS011;7457;50.960;6.830;2022-12-07T17:05:47;11.18;;;9.27;;
14732;SDS011;7457;50.960;6.830;2022-12-07T17:08:14;13.95;;;8.98;;
14732;SDS011;7457;50.960;6.830;2022-12-07T17:10:41;12.93;;;10.07;;
14732;SDS011;7457;50.960;6.830;2022-12-07T17:13:08;15.13;;;9.68;;
14732;SDS011;7457;50.960;6.830;2022-12-07T17:15:54;16.52;;;10.10;;